sensor_id;sensor_type;location;lat;lon;timestamp;temperature;humidity
5846;DHT22;2949;50.778;7.094;2023-05-10T00:02:07;12.60;99.90
5846;DHT22;2949;50.778;7.094;2023-05-10T00:04:33;12.60;99.90
5846;DHT22;2949;50.778;7.094;2023-05-10T00:06:59;12.60;99.90
5846;DHT22;2949;50.778;7.094;2023-05-10T00:09:24;12.70;99.90
5846;DHT22;2949;50.778;7.094;2023-05-10T00:11:50;12.70;99.90
5846;DHT22;2949;50.778;7.094;2023-05-10T00:14:15;12.70;99.90
5846;DHT22;2949;50.778;7.094;2023-05-10T00:16:41;12.70;99.90
5846;DHT22;2949;50.778;7.094;2023-05-10T00:19:07;12.70;99.90
5846;DHT22;2949;50.778;7.094;2023-05-10T00:21:32;12.70;99.90
5846;DHT22;2949;50.778;7.094;2023-05-10T00:23:59;12.70;99.90
5846;DHT22;2949;50.778;7.094;2023-05-10T00:26:24;12.70;99.90
5846;DHT22;2949;50.778;7.094;2023-05-10T00:28:50;12.70;99.90
5846;DHT22;2949;50.778;7.094;2023-05-10T00:31:16;12.70;99.90
5846;DHT22;2949;50.778;7.094;2023-05-10T00:33:41;12.70;99.90
5846;DHT22;2949;50.778;7.094;2023-05-10T00:36:07;12.70;99.90
5846;DHT22;2949;50.778;7.094;2023-05-10T00:38:33;12.70;99.90
5846;DHT22;2949;50.778;7.094;2023-05-10T00:40:59;12.70;99.90
5846;DHT22;2949;50.778;7.094;2023-05-10T00:43:24;12.70;99.90
5846;DHT22;2949;50.778;7.094;2023-05-10T00:45:50;12.70;99.90
5846;DHT22;2949;50.778;7.094;2023-05-10T00:48:15;12.80;99.90
5846;DHT22;2949;50.778;7.094;2023-05-10T00:50:41;12.70;99.90
5846;DHT22;2949;50.778;7.094;2023-05-10T00:53:07;12.70;99.90
5846;DHT22;2949;50.778;7.094;2023-05-10T00:55:33;12.70;99.90
5846;DHT22;2949;50.778;7.094;2023-05-10T00:57:59;12.80;99.90
5846;DHT22;2949;50.778;7.094;2023-05-10T01:00:24;12.80;99.90
5846;DHT22;2949;50.778;7.094;2023-05-10T01:02:51;12.80;99.90
5846;DHT22;2949;50.778;7.094;2023-05-10T01:05:17;12.80;99.90
5846;DHT22;2949;50.778;7.094;2023-05-10T01:07:43;12.80;99.90
5846;DHT22;2949;50.778;7.094;2023-05-10T01:10:09;12.80;99.90
5846;DHT22;2949;50.778;7.094;2023-05-10T01:12:38;12.80;99.90
5846;DHT22;2949;50.778;7.094;2023-05-10T01:15:06;12.80;99.90
5846;DHT22;2949;50.778;7.094;2023-05-10T01:17:34;12.80;99.90
5846;DHT22;2949;50.778;7.094;2023-05-10T01:20:01;12.80;99.90
5846;DHT22;2949;50.778;7.094;2023-05-10T01:34:02;12.80;99.90
5846;DHT22;2949;50.778;7.094;2023-05-10T01:36:43;12.80;99.90
5846;DHT22;2949;50.778;7.094;2023-05-10T01:39:25;12.80;99.90
5846;DHT22;2949;50.778;7.094;2023-05-10T01:42:16;12.80;99.90
5846;DHT22;2949;50.778;7.094;2023-05-10T01:47:23;12.80;99.90
5846;DHT22;2949;50.778;7.094;2023-05-10T01:49:54;12.80;99.90
5846;DHT22;2949;50.778;7.094;2023-05-10T01:52:25;12.80;99.90
5846;DHT22;2949;50.778;7.094;2023-05-10T01:55:04;12.70;99.90
5846;DHT22;2949;50.778;7.094;2023-05-10T01:57:35;12.80;99.90
5846;DHT22;2949;50.778;7.094;2023-05-10T02:00:04;12.80;99.90
5846;DHT22;2949;50.778;7.094;2023-05-10T02:02:39;12.70;99.90
5846;DHT22;2949;50.778;7.094;2023-05-10T02:05:07;12.80;99.90
5846;DHT22;2949;50.778;7.094;2023-05-10T02:07:36;12.80;99.90
5846;DHT22;2949;50.778;7.094;2023-05-10T02:10:06;12.80;99.90
5846;DHT22;2949;50.778;7.094;2023-05-10T02:12:36;12.80;99.90
5846;DHT22;2949;50.778;7.094;2023-05-10T02:15:03;12.80;99.90
5846;DHT22;2949;50.778;7.094;2023-05-10T02:17:31;12.80;99.90
5846;DHT22;2949;50.778;7.094;2023-05-10T02:19:58;12.80;99.90
5846;DHT22;2949;50.778;7.094;2023-05-10T02:22:26;12.70;99.90
5846;DHT22;2949;50.778;7.094;2023-05-10T02:24:56;12.70;99.90
5846;DHT22;2949;50.778;7.094;2023-05-10T02:27:23;12.70;99.90
5846;DHT22;2949;50.778;7.094;2023-05-10T02:29:50;12.70;99.90
5846;DHT22;2949;50.778;7.094;2023-05-10T02:32:17;12.70;99.90
5846;DHT22;2949;50.778;7.094;2023-05-10T02:34:44;12.70;99.90
5846;DHT22;2949;50.778;7.094;2023-05-10T02:37:13;12.70;99.90
5846;DHT22;2949;50.778;7.094;2023-05-10T02:39:39;12.70;99.90
5846;DHT22;2949;50.778;7.094;2023-05-10T02:42:11;12.70;99.90
5846;DHT22;2949;50.778;7.094;2023-05-10T02:44:41;12.70;99.90
5846;DHT22;2949;50.778;7.094;2023-05-10T02:47:08;12.70;99.90
5846;DHT22;2949;50.778;7.094;2023-05-10T02:49:34;12.70;99.90
5846;DHT22;2949;50.778;7.094;2023-05-10T02:52:01;12.70;99.90
5846;DHT22;2949;50.778;7.094;2023-05-10T02:54:33;12.70;99.90
5846;DHT22;2949;50.778;7.094;2023-05-10T02:57:03;12.70;99.90
5846;DHT22;2949;50.778;7.094;2023-05-10T02:59:30;12.70;99.90
5846;DHT22;2949;50.778;7.094;2023-05-10T03:01:56;12.70;99.90
5846;DHT22;2949;50.778;7.094;2023-05-10T03:04:21;12.70;99.90
5846;DHT22;2949;50.778;7.094;2023-05-10T03:06:47;12.70;99.90
5846;DHT22;2949;50.778;7.094;2023-05-10T03:09:13;12.70;99.90
5846;DHT22;2949;50.778;7.094;2023-05-10T03:12:14;12.80;99.90
5846;DHT22;2949;50.778;7.094;2023-05-10T03:14:53;12.80;99.90
5846;DHT22;2949;50.778;7.094;2023-05-10T03:17:29;12.80;99.90
5846;DHT22;2949;50.778;7.094;2023-05-10T03:20:03;12.80;99.90
5846;DHT22;2949;50.778;7.094;2023-05-10T03:22:36;12.80;99.90
5846;DHT22;2949;50.778;7.094;2023-05-10T03:25:05;12.80;99.90
5846;DHT22;2949;50.778;7.094;2023-05-10T03:27:32;12.80;99.90
5846;DHT22;2949;50.778;7.094;2023-05-10T03:29:58;12.80;99.90
5846;DHT22;2949;50.778;7.094;2023-05-10T03:32:25;12.80;99.90
5846;DHT22;2949;50.778;7.094;2023-05-10T03:34:52;12.80;99.90
5846;DHT22;2949;50.778;7.094;2023-05-10T03:37:17;12.80;99.90
5846;DHT22;2949;50.778;7.094;2023-05-10T03:39:43;12.80;99.90
5846;DHT22;2949;50.778;7.094;2023-05-10T03:42:08;12.80;99.90
5846;DHT22;2949;50.778;7.094;2023-05-10T03:44:38;12.80;99.90
5846;DHT22;2949;50.778;7.094;2023-05-10T03:47:03;12.80;99.90
5846;DHT22;2949;50.778;7.094;2023-05-10T03:49:29;12.80;99.90
5846;DHT22;2949;50.778;7.094;2023-05-10T03:51:54;12.80;99.90
5846;DHT22;2949;50.778;7.094;2023-05-10T03:54:20;12.80;99.90
5846;DHT22;2949;50.778;7.094;2023-05-10T03:56:45;12.80;99.90
5846;DHT22;2949;50.778;7.094;2023-05-10T03:59:13;12.80;99.90
5846;DHT22;2949;50.778;7.094;2023-05-10T04:01:38;12.80;99.90
5846;DHT22;2949;50.778;7.094;2023-05-10T04:04:04;12.80;99.90
5846;DHT22;2949;50.778;7.094;2023-05-10T04:06:29;12.80;99.90
5846;DHT22;2949;50.778;7.094;2023-05-10T04:08:56;12.80;99.90
5846;DHT22;2949;50.778;7.094;2023-05-10T04:11:21;12.80;99.90
5846;DHT22;2949;50.778;7.094;2023-05-10T04:13:47;12.80;99.90
5846;DHT22;2949;50.778;7.094;2023-05-10T04:16:13;12.90;99.90
5846;DHT22;2949;50.778;7.094;2023-05-10T04:18:39;12.90;99.90
5846;DHT22;2949;50.778;7.094;2023-05-10T04:21:11;12.90;99.90
5846;DHT22;2949;50.778;7.094;2023-05-10T04:23:37;12.90;99.90
5846;DHT22;2949;50.778;7.094;2023-05-10T04:26:03;13.00;99.90
5846;DHT22;2949;50.778;7.094;2023-05-10T04:28:28;13.00;99.90
5846;DHT22;2949;50.778;7.094;2023-05-10T04:31:03;13.00;99.90
5846;DHT22;2949;50.778;7.094;2023-05-10T04:33:29;13.00;99.90
5846;DHT22;2949;50.778;7.094;2023-05-10T04:35:55;13.00;99.90
5846;DHT22;2949;50.778;7.094;2023-05-10T04:38:21;13.00;99.90
5846;DHT22;2949;50.778;7.094;2023-05-10T04:40:46;13.00;99.90
5846;DHT22;2949;50.778;7.094;2023-05-10T04:43:12;13.10;99.90
5846;DHT22;2949;50.778;7.094;2023-05-10T04:45:37;13.10;99.90
5846;DHT22;2949;50.778;7.094;2023-05-10T04:48:03;13.10;99.90
5846;DHT22;2949;50.778;7.094;2023-05-10T04:50:28;13.10;99.90
5846;DHT22;2949;50.778;7.094;2023-05-10T04:52:54;13.20;99.90
5846;DHT22;2949;50.778;7.094;2023-05-10T04:55:19;13.20;99.90
5846;DHT22;2949;50.778;7.094;2023-05-10T04:57:45;13.20;99.90
5846;DHT22;2949;50.778;7.094;2023-05-10T05:00:11;13.30;99.90
5846;DHT22;2949;50.778;7.094;2023-05-10T05:02:37;13.30;99.90
5846;DHT22;2949;50.778;7.094;2023-05-10T05:05:04;13.30;99.90
5846;DHT22;2949;50.778;7.094;2023-05-10T05:07:29;13.30;99.90
5846;DHT22;2949;50.778;7.094;2023-05-10T05:09:56;13.30;99.90
5846;DHT22;2949;50.778;7.094;2023-05-10T05:12:21;13.40;99.90
5846;DHT22;2949;50.778;7.094;2023-05-10T05:14:47;13.40;99.90
5846;DHT22;2949;50.778;7.094;2023-05-10T05:17:12;13.40;99.90
5846;DHT22;2949;50.778;7.094;2023-05-10T05:19:38;13.40;99.90
5846;DHT22;2949;50.778;7.094;2023-05-10T05:22:03;13.50;99.90
5846;DHT22;2949;50.778;7.094;2023-05-10T05:24:29;13.50;99.90
5846;DHT22;2949;50.778;7.094;2023-05-10T05:26:54;13.50;99.90
5846;DHT22;2949;50.778;7.094;2023-05-10T05:29:20;13.60;99.90
5846;DHT22;2949;50.778;7.094;2023-05-10T05:31:45;13.60;99.90
5846;DHT22;2949;50.778;7.094;2023-05-10T05:34:10;13.70;99.90
5846;DHT22;2949;50.778;7.094;2023-05-10T05:36:37;13.70;99.90
5846;DHT22;2949;50.778;7.094;2023-05-10T05:39:03;13.80;99.90
5846;DHT22;2949;50.778;7.094;2023-05-10T05:41:30;13.90;99.90
5846;DHT22;2949;50.778;7.094;2023-05-10T05:43:55;14.00;99.90
5846;DHT22;2949;50.778;7.094;2023-05-10T05:46:21;14.10;99.90
5846;DHT22;2949;50.778;7.094;2023-05-10T05:48:46;14.20;99.90
5846;DHT22;2949;50.778;7.094;2023-05-10T05:51:12;14.20;99.90
5846;DHT22;2949;50.778;7.094;2023-05-10T05:53:37;14.20;99.90
5846;DHT22;2949;50.778;7.094;2023-05-10T05:56:03;14.20;99.90
5846;DHT22;2949;50.778;7.094;2023-05-10T05:58:29;14.30;99.90
5846;DHT22;2949;50.778;7.094;2023-05-10T06:00:54;14.40;99.90
5846;DHT22;2949;50.778;7.094;2023-05-10T06:03:20;14.50;99.90
5846;DHT22;2949;50.778;7.094;2023-05-10T06:05:46;14.50;99.90
5846;DHT22;2949;50.778;7.094;2023-05-10T06:08:11;14.50;99.90
5846;DHT22;2949;50.778;7.094;2023-05-10T06:10:37;14.50;99.90
5846;DHT22;2949;50.778;7.094;2023-05-10T06:13:02;14.50;99.90
5846;DHT22;2949;50.778;7.094;2023-05-10T06:15:28;14.50;99.90
5846;DHT22;2949;50.778;7.094;2023-05-10T06:17:53;14.60;99.90
5846;DHT22;2949;50.778;7.094;2023-05-10T06:20:19;14.50;99.90
5846;DHT22;2949;50.778;7.094;2023-05-10T06:22:45;14.60;99.90
5846;DHT22;2949;50.778;7.094;2023-05-10T06:25:10;14.80;99.90
5846;DHT22;2949;50.778;7.094;2023-05-10T06:27:36;14.90;99.90
5846;DHT22;2949;50.778;7.094;2023-05-10T06:30:02;15.00;99.90
5846;DHT22;2949;50.778;7.094;2023-05-10T06:32:28;15.10;99.90
5846;DHT22;2949;50.778;7.094;2023-05-10T06:34:53;15.10;99.90
5846;DHT22;2949;50.778;7.094;2023-05-10T06:37:19;15.10;99.90
5846;DHT22;2949;50.778;7.094;2023-05-10T06:39:45;15.00;99.90
5846;DHT22;2949;50.778;7.094;2023-05-10T06:42:10;14.90;99.90
5846;DHT22;2949;50.778;7.094;2023-05-10T06:44:36;14.70;99.90
5846;DHT22;2949;50.778;7.094;2023-05-10T06:47:01;14.70;99.90
5846;DHT22;2949;50.778;7.094;2023-05-10T06:49:27;14.60;99.90
5846;DHT22;2949;50.778;7.094;2023-05-10T06:51:53;14.50;99.90
5846;DHT22;2949;50.778;7.094;2023-05-10T06:54:18;14.40;99.90
5846;DHT22;2949;50.778;7.094;2023-05-10T06:56:44;14.40;99.90
5846;DHT22;2949;50.778;7.094;2023-05-10T06:59:09;14.40;99.90
5846;DHT22;2949;50.778;7.094;2023-05-10T07:01:35;14.50;99.90
5846;DHT22;2949;50.778;7.094;2023-05-10T07:04:00;14.50;99.90
5846;DHT22;2949;50.778;7.094;2023-05-10T07:06:26;14.50;99.90
5846;DHT22;2949;50.778;7.094;2023-05-10T07:08:52;14.60;99.90
5846;DHT22;2949;50.778;7.094;2023-05-10T07:11:18;14.60;99.90
5846;DHT22;2949;50.778;7.094;2023-05-10T07:13:43;14.70;99.90
5846;DHT22;2949;50.778;7.094;2023-05-10T07:16:11;14.80;99.90
5846;DHT22;2949;50.778;7.094;2023-05-10T07:18:36;14.80;99.90
5846;DHT22;2949;50.778;7.094;2023-05-10T07:21:02;14.80;99.90
5846;DHT22;2949;50.778;7.094;2023-05-10T07:23:28;14.90;99.90
5846;DHT22;2949;50.778;7.094;2023-05-10T07:25:53;14.90;99.90
5846;DHT22;2949;50.778;7.094;2023-05-10T07:28:19;14.90;99.90
5846;DHT22;2949;50.778;7.094;2023-05-10T07:30:45;15.00;99.90
5846;DHT22;2949;50.778;7.094;2023-05-10T07:33:13;15.00;99.90
5846;DHT22;2949;50.778;7.094;2023-05-10T07:35:39;15.00;99.90
5846;DHT22;2949;50.778;7.094;2023-05-10T07:38:05;15.00;99.90
5846;DHT22;2949;50.778;7.094;2023-05-10T07:40:31;14.90;99.90
5846;DHT22;2949;50.778;7.094;2023-05-10T07:42:56;14.90;99.90
5846;DHT22;2949;50.778;7.094;2023-05-10T07:45:22;14.80;99.90
5846;DHT22;2949;50.778;7.094;2023-05-10T07:47:48;14.70;99.90
5846;DHT22;2949;50.778;7.094;2023-05-10T07:50:14;14.60;99.90
5846;DHT22;2949;50.778;7.094;2023-05-10T07:52:39;14.50;99.90
5846;DHT22;2949;50.778;7.094;2023-05-10T07:55:05;14.60;99.90
5846;DHT22;2949;50.778;7.094;2023-05-10T07:57:35;14.60;99.90
5846;DHT22;2949;50.778;7.094;2023-05-10T08:00:01;14.80;99.90
5846;DHT22;2949;50.778;7.094;2023-05-10T08:02:26;15.00;99.90
5846;DHT22;2949;50.778;7.094;2023-05-10T08:04:52;15.10;99.90
5846;DHT22;2949;50.778;7.094;2023-05-10T08:07:18;15.20;99.90
5846;DHT22;2949;50.778;7.094;2023-05-10T08:09:43;15.20;99.90
5846;DHT22;2949;50.778;7.094;2023-05-10T08:12:09;15.20;99.90
5846;DHT22;2949;50.778;7.094;2023-05-10T08:14:35;15.40;99.90
5846;DHT22;2949;50.778;7.094;2023-05-10T08:17:03;15.70;99.90
5846;DHT22;2949;50.778;7.094;2023-05-10T08:19:29;16.00;99.90
5846;DHT22;2949;50.778;7.094;2023-05-10T08:21:55;16.30;99.90
5846;DHT22;2949;50.778;7.094;2023-05-10T08:24:23;16.60;99.90
5846;DHT22;2949;50.778;7.094;2023-05-10T08:26:49;16.80;99.90
5846;DHT22;2949;50.778;7.094;2023-05-10T08:29:14;16.90;99.90
5846;DHT22;2949;50.778;7.094;2023-05-10T08:31:40;17.00;99.90
5846;DHT22;2949;50.778;7.094;2023-05-10T08:34:06;17.20;99.90
5846;DHT22;2949;50.778;7.094;2023-05-10T08:36:31;17.20;99.90
5846;DHT22;2949;50.778;7.094;2023-05-10T08:38:57;17.30;99.90
5846;DHT22;2949;50.778;7.094;2023-05-10T08:41:23;17.70;99.90
5846;DHT22;2949;50.778;7.094;2023-05-10T08:43:51;18.60;99.90
5846;DHT22;2949;50.778;7.094;2023-05-10T08:46:18;20.00;99.90
5846;DHT22;2949;50.778;7.094;2023-05-10T08:48:45;20.70;99.90
5846;DHT22;2949;50.778;7.094;2023-05-10T08:51:14;20.80;99.90
5846;DHT22;2949;50.778;7.094;2023-05-10T08:53:40;20.40;99.90
5846;DHT22;2949;50.778;7.094;2023-05-10T08:56:06;20.00;99.90
5846;DHT22;2949;50.778;7.094;2023-05-10T08:58:32;19.50;99.90
5846;DHT22;2949;50.778;7.094;2023-05-10T09:00:57;18.80;99.90
5846;DHT22;2949;50.778;7.094;2023-05-10T09:03:23;18.50;99.90
5846;DHT22;2949;50.778;7.094;2023-05-10T09:05:49;18.20;99.90
5846;DHT22;2949;50.778;7.094;2023-05-10T09:08:15;17.90;99.90
5846;DHT22;2949;50.778;7.094;2023-05-10T09:10:45;17.60;99.90
5846;DHT22;2949;50.778;7.094;2023-05-10T09:13:13;17.20;99.90
5846;DHT22;2949;50.778;7.094;2023-05-10T09:15:39;17.00;99.90
5846;DHT22;2949;50.778;7.094;2023-05-10T09:18:05;16.90;99.90
5846;DHT22;2949;50.778;7.094;2023-05-10T09:20:30;16.60;99.90
5846;DHT22;2949;50.778;7.094;2023-05-10T09:22:56;16.40;99.90
5846;DHT22;2949;50.778;7.094;2023-05-10T09:25:22;16.10;99.90
5846;DHT22;2949;50.778;7.094;2023-05-10T09:27:48;16.10;99.90
5846;DHT22;2949;50.778;7.094;2023-05-10T09:30:26;15.90;99.90
5846;DHT22;2949;50.778;7.094;2023-05-10T09:32:53;15.70;99.90
5846;DHT22;2949;50.778;7.094;2023-05-10T09:35:20;15.70;99.90
5846;DHT22;2949;50.778;7.094;2023-05-10T09:37:50;15.70;99.90
5846;DHT22;2949;50.778;7.094;2023-05-10T09:40:17;15.90;99.90
5846;DHT22;2949;50.778;7.094;2023-05-10T09:42:54;16.00;99.90
5846;DHT22;2949;50.778;7.094;2023-05-10T09:45:21;16.30;99.90
5846;DHT22;2949;50.778;7.094;2023-05-10T09:47:47;16.60;99.90
5846;DHT22;2949;50.778;7.094;2023-05-10T09:50:13;16.90;99.90
5846;DHT22;2949;50.778;7.094;2023-05-10T09:55:44;17.20;99.90
5846;DHT22;2949;50.778;7.094;2023-05-10T09:58:10;17.40;99.90
5846;DHT22;2949;50.778;7.094;2023-05-10T10:00:38;17.40;99.90
5846;DHT22;2949;50.778;7.094;2023-05-10T10:03:04;17.50;99.90
5846;DHT22;2949;50.778;7.094;2023-05-10T10:07:57;17.10;99.90
5846;DHT22;2949;50.778;7.094;2023-05-10T10:10:24;17.40;99.90
5846;DHT22;2949;50.778;7.094;2023-05-10T10:12:51;17.40;99.90
5846;DHT22;2949;50.778;7.094;2023-05-10T10:15:16;17.60;99.90
5846;DHT22;2949;50.778;7.094;2023-05-10T10:17:43;17.80;99.90
5846;DHT22;2949;50.778;7.094;2023-05-10T10:20:09;18.20;99.90
5846;DHT22;2949;50.778;7.094;2023-05-10T10:22:36;18.50;99.90
5846;DHT22;2949;50.778;7.094;2023-05-10T10:25:03;18.70;99.90
5846;DHT22;2949;50.778;7.094;2023-05-10T10:30:31;19.60;99.90
5846;DHT22;2949;50.778;7.094;2023-05-10T10:35:29;20.30;99.90
5846;DHT22;2949;50.778;7.094;2023-05-10T10:37:55;20.10;99.90
5846;DHT22;2949;50.778;7.094;2023-05-10T10:40:25;19.60;99.90
5846;DHT22;2949;50.778;7.094;2023-05-10T10:42:51;19.40;99.90
5846;DHT22;2949;50.778;7.094;2023-05-10T10:45:19;18.90;99.90
5846;DHT22;2949;50.778;7.094;2023-05-10T10:47:45;18.40;99.90
5846;DHT22;2949;50.778;7.094;2023-05-10T10:50:11;18.20;99.90
5846;DHT22;2949;50.778;7.094;2023-05-10T10:52:42;18.00;99.90
5846;DHT22;2949;50.778;7.094;2023-05-10T10:55:17;18.10;99.90
5846;DHT22;2949;50.778;7.094;2023-05-10T10:57:54;18.10;99.90
5846;DHT22;2949;50.778;7.094;2023-05-10T11:00:27;18.60;99.90
5846;DHT22;2949;50.778;7.094;2023-05-10T11:05:38;20.20;99.90
5846;DHT22;2949;50.778;7.094;2023-05-10T11:08:11;20.40;99.90
5846;DHT22;2949;50.778;7.094;2023-05-10T11:10:37;20.20;99.90
5846;DHT22;2949;50.778;7.094;2023-05-10T11:13:08;20.00;99.90
5846;DHT22;2949;50.778;7.094;2023-05-10T11:15:34;19.90;99.90
5846;DHT22;2949;50.778;7.094;2023-05-10T11:18:34;19.70;99.90
5846;DHT22;2949;50.778;7.094;2023-05-10T11:21:01;19.70;99.90
5846;DHT22;2949;50.778;7.094;2023-05-10T11:23:51;20.00;99.90
5846;DHT22;2949;50.778;7.094;2023-05-10T11:26:18;20.30;99.90
5846;DHT22;2949;50.778;7.094;2023-05-10T11:28:44;20.50;99.90
5846;DHT22;2949;50.778;7.094;2023-05-10T11:31:10;21.20;99.90
5846;DHT22;2949;50.778;7.094;2023-05-10T11:33:49;21.80;99.90
5846;DHT22;2949;50.778;7.094;2023-05-10T11:36:20;21.60;99.90
5846;DHT22;2949;50.778;7.094;2023-05-10T11:38:47;21.70;99.90
5846;DHT22;2949;50.778;7.094;2023-05-10T11:41:14;21.60;99.90
5846;DHT22;2949;50.778;7.094;2023-05-10T11:43:41;22.00;99.90
5846;DHT22;2949;50.778;7.094;2023-05-10T11:46:09;22.10;99.90
5846;DHT22;2949;50.778;7.094;2023-05-10T11:48:35;21.70;99.90
5846;DHT22;2949;50.778;7.094;2023-05-10T11:51:01;21.20;99.90
5846;DHT22;2949;50.778;7.094;2023-05-10T11:53:29;21.30;99.90
5846;DHT22;2949;50.778;7.094;2023-05-10T11:55:54;21.20;99.90
5846;DHT22;2949;50.778;7.094;2023-05-10T11:58:20;21.00;99.90
5846;DHT22;2949;50.778;7.094;2023-05-10T12:00:47;20.70;99.90
5846;DHT22;2949;50.778;7.094;2023-05-10T12:03:13;21.00;99.90
5846;DHT22;2949;50.778;7.094;2023-05-10T12:05:38;21.70;99.90
5846;DHT22;2949;50.778;7.094;2023-05-10T12:08:14;22.30;99.90
5846;DHT22;2949;50.778;7.094;2023-05-10T12:10:40;22.40;99.90
5846;DHT22;2949;50.778;7.094;2023-05-10T12:13:20;22.50;99.90
5846;DHT22;2949;50.778;7.094;2023-05-10T12:15:46;22.70;99.90
5846;DHT22;2949;50.778;7.094;2023-05-10T12:18:13;22.60;99.90
5846;DHT22;2949;50.778;7.094;2023-05-10T12:20:40;22.20;99.90
5846;DHT22;2949;50.778;7.094;2023-05-10T12:23:08;21.70;99.90
5846;DHT22;2949;50.778;7.094;2023-05-10T12:25:36;21.60;99.90
5846;DHT22;2949;50.778;7.094;2023-05-10T12:28:06;22.00;99.90
5846;DHT22;2949;50.778;7.094;2023-05-10T12:30:34;22.40;99.90
5846;DHT22;2949;50.778;7.094;2023-05-10T12:33:02;22.50;99.90
5846;DHT22;2949;50.778;7.094;2023-05-10T12:35:32;22.40;99.90
5846;DHT22;2949;50.778;7.094;2023-05-10T12:37:57;22.20;99.90
5846;DHT22;2949;50.778;7.094;2023-05-10T12:40:23;22.00;99.90
5846;DHT22;2949;50.778;7.094;2023-05-10T12:42:49;21.70;99.90
5846;DHT22;2949;50.778;7.094;2023-05-10T12:45:14;21.60;99.90
5846;DHT22;2949;50.778;7.094;2023-05-10T12:47:40;21.40;99.90
5846;DHT22;2949;50.778;7.094;2023-05-10T12:50:06;21.00;99.90
5846;DHT22;2949;50.778;7.094;2023-05-10T12:52:32;20.70;99.90
5846;DHT22;2949;50.778;7.094;2023-05-10T12:54:58;20.60;99.90
5846;DHT22;2949;50.778;7.094;2023-05-10T12:57:25;20.30;99.90
5846;DHT22;2949;50.778;7.094;2023-05-10T12:59:50;20.00;99.90
5846;DHT22;2949;50.778;7.094;2023-05-10T13:02:16;19.80;99.90
5846;DHT22;2949;50.778;7.094;2023-05-10T13:04:44;19.60;99.90
5846;DHT22;2949;50.778;7.094;2023-05-10T13:07:09;19.50;99.90
5846;DHT22;2949;50.778;7.094;2023-05-10T13:09:35;19.40;99.90
5846;DHT22;2949;50.778;7.094;2023-05-10T13:12:01;19.30;99.90
5846;DHT22;2949;50.778;7.094;2023-05-10T13:14:27;19.10;99.90
5846;DHT22;2949;50.778;7.094;2023-05-10T13:16:52;18.90;99.90
5846;DHT22;2949;50.778;7.094;2023-05-10T13:19:19;18.80;99.90
5846;DHT22;2949;50.778;7.094;2023-05-10T13:21:44;18.60;99.90
5846;DHT22;2949;50.778;7.094;2023-05-10T13:24:10;18.30;99.90
5846;DHT22;2949;50.778;7.094;2023-05-10T13:26:39;18.20;99.90
5846;DHT22;2949;50.778;7.094;2023-05-10T13:29:05;18.30;99.90
5846;DHT22;2949;50.778;7.094;2023-05-10T13:31:30;18.60;99.90
5846;DHT22;2949;50.778;7.094;2023-05-10T13:33:56;19.20;99.90
5846;DHT22;2949;50.778;7.094;2023-05-10T13:36:22;20.10;99.90
5846;DHT22;2949;50.778;7.094;2023-05-10T13:38:48;20.80;99.90
5846;DHT22;2949;50.778;7.094;2023-05-10T13:41:14;21.20;99.90
5846;DHT22;2949;50.778;7.094;2023-05-10T13:43:39;21.40;99.90
5846;DHT22;2949;50.778;7.094;2023-05-10T13:46:05;21.20;99.90
5846;DHT22;2949;50.778;7.094;2023-05-10T13:48:30;20.70;99.90
5846;DHT22;2949;50.778;7.094;2023-05-10T13:50:56;20.20;99.90
5846;DHT22;2949;50.778;7.094;2023-05-10T13:53:22;19.80;99.90
5846;DHT22;2949;50.778;7.094;2023-05-10T13:55:47;19.40;99.90
5846;DHT22;2949;50.778;7.094;2023-05-10T13:58:13;19.00;99.90
5846;DHT22;2949;50.778;7.094;2023-05-10T14:00:39;18.60;99.90
5846;DHT22;2949;50.778;7.094;2023-05-10T14:03:04;18.30;99.90
5846;DHT22;2949;50.778;7.094;2023-05-10T14:05:34;18.00;99.90
5846;DHT22;2949;50.778;7.094;2023-05-10T14:07:59;17.80;99.90
5846;DHT22;2949;50.778;7.094;2023-05-10T14:10:25;17.80;99.90
5846;DHT22;2949;50.778;7.094;2023-05-10T14:12:50;17.80;99.90
5846;DHT22;2949;50.778;7.094;2023-05-10T14:15:16;17.60;99.90
5846;DHT22;2949;50.778;7.094;2023-05-10T14:17:42;17.60;99.90
5846;DHT22;2949;50.778;7.094;2023-05-10T14:20:07;17.50;99.90
5846;DHT22;2949;50.778;7.094;2023-05-10T14:22:34;17.50;99.90
5846;DHT22;2949;50.778;7.094;2023-05-10T14:24:59;17.40;99.90
5846;DHT22;2949;50.778;7.094;2023-05-10T14:27:25;17.40;99.90
5846;DHT22;2949;50.778;7.094;2023-05-10T14:29:51;17.30;99.90
5846;DHT22;2949;50.778;7.094;2023-05-10T14:32:16;17.30;99.90
5846;DHT22;2949;50.778;7.094;2023-05-10T14:34:42;17.30;99.90
5846;DHT22;2949;50.778;7.094;2023-05-10T14:37:10;17.20;99.90
5846;DHT22;2949;50.778;7.094;2023-05-10T14:39:36;17.10;99.90
5846;DHT22;2949;50.778;7.094;2023-05-10T14:42:02;17.00;99.90
5846;DHT22;2949;50.778;7.094;2023-05-10T14:44:28;17.10;99.90
5846;DHT22;2949;50.778;7.094;2023-05-10T14:46:53;17.10;99.90
5846;DHT22;2949;50.778;7.094;2023-05-10T14:49:19;17.10;99.90
5846;DHT22;2949;50.778;7.094;2023-05-10T14:51:44;17.10;99.90
5846;DHT22;2949;50.778;7.094;2023-05-10T14:54:10;17.20;99.90
5846;DHT22;2949;50.778;7.094;2023-05-10T14:56:36;17.50;99.90
5846;DHT22;2949;50.778;7.094;2023-05-10T14:59:02;17.90;99.90
5846;DHT22;2949;50.778;7.094;2023-05-10T15:01:29;18.40;99.90
5846;DHT22;2949;50.778;7.094;2023-05-10T15:03:54;18.90;99.90
5846;DHT22;2949;50.778;7.094;2023-05-10T15:06:24;19.30;99.90
5846;DHT22;2949;50.778;7.094;2023-05-10T15:08:55;19.60;99.90
5846;DHT22;2949;50.778;7.094;2023-05-10T15:11:20;19.80;99.90
5846;DHT22;2949;50.778;7.094;2023-05-10T15:13:46;20.00;99.90
5846;DHT22;2949;50.778;7.094;2023-05-10T15:16:12;19.80;99.90
5846;DHT22;2949;50.778;7.094;2023-05-10T15:18:37;19.70;99.90
5846;DHT22;2949;50.778;7.094;2023-05-10T15:21:03;19.60;99.90
5846;DHT22;2949;50.778;7.094;2023-05-10T15:23:28;19.60;99.90
5846;DHT22;2949;50.778;7.094;2023-05-10T15:25:55;19.20;99.90
5846;DHT22;2949;50.778;7.094;2023-05-10T15:28:21;18.90;99.90
5846;DHT22;2949;50.778;7.094;2023-05-10T15:30:46;18.60;99.90
5846;DHT22;2949;50.778;7.094;2023-05-10T15:33:12;18.30;99.90
5846;DHT22;2949;50.778;7.094;2023-05-10T15:35:37;18.00;99.90
5846;DHT22;2949;50.778;7.094;2023-05-10T15:38:05;17.80;99.90
5846;DHT22;2949;50.778;7.094;2023-05-10T15:40:31;17.50;99.90
5846;DHT22;2949;50.778;7.094;2023-05-10T15:42:56;17.40;99.90
5846;DHT22;2949;50.778;7.094;2023-05-10T15:45:22;17.10;99.90
5846;DHT22;2949;50.778;7.094;2023-05-10T15:47:47;16.90;99.90
5846;DHT22;2949;50.778;7.094;2023-05-10T15:50:14;16.70;99.90
5846;DHT22;2949;50.778;7.094;2023-05-10T15:52:40;16.50;99.90
5846;DHT22;2949;50.778;7.094;2023-05-10T15:55:07;16.40;99.90
5846;DHT22;2949;50.778;7.094;2023-05-10T15:57:40;16.20;99.90
5846;DHT22;2949;50.778;7.094;2023-05-10T16:00:07;16.00;99.90
5846;DHT22;2949;50.778;7.094;2023-05-10T16:02:34;15.90;99.90
5846;DHT22;2949;50.778;7.094;2023-05-10T16:04:59;15.70;99.90
5846;DHT22;2949;50.778;7.094;2023-05-10T16:07:25;15.60;99.90
5846;DHT22;2949;50.778;7.094;2023-05-10T16:09:50;15.50;99.90
5846;DHT22;2949;50.778;7.094;2023-05-10T16:12:16;15.50;99.90
5846;DHT22;2949;50.778;7.094;2023-05-10T16:14:41;15.50;99.90
5846;DHT22;2949;50.778;7.094;2023-05-10T16:17:07;15.70;99.90
5846;DHT22;2949;50.778;7.094;2023-05-10T16:19:32;15.80;99.90
5846;DHT22;2949;50.778;7.094;2023-05-10T16:21:58;15.90;99.90
5846;DHT22;2949;50.778;7.094;2023-05-10T16:24:24;16.10;99.90
5846;DHT22;2949;50.778;7.094;2023-05-10T16:26:50;16.20;99.90
5846;DHT22;2949;50.778;7.094;2023-05-10T16:29:16;16.40;99.90